Time;durP1;ratioP1;P1;durP2;ratioP2;P2;SDS_P1;SDS_P2;PMS_P1;PMS_P2;Temp;Humidity;BMP_temperature;BMP_pressure;BME280_temperature;BME280_humidity;BME280_pressure;Samples;Min_cycle;Max_cycle;Signal;HPM_P1;HPM_P2
2021/12/23 00:01:48;;;;;;;20.63;12.30;;;-0.20;99.90;;;;;;4991874;28;20034;-49
2021/12/23 00:04:14;;;;;;;21.90;12.65;;;-0.20;99.90;;;;;;4991918;28;20100;-50
2021/12/23 00:06:41;;;;;;;21.25;12.50;;;-0.20;99.90;;;;;;4991771;28;20486;-50
2021/12/23 00:09:07;;;;;;;22.20;12.60;;;-0.20;99.90;;;;;;5006706;28;20449;-47
2021/12/23 00:11:33;;;;;;;25.70;13.25;;;-0.20;99.90;;;;;;4988468;28;20121;-48
2021/12/23 00:14:07;;;;;;;21.92;12.13;;;-0.20;99.90;;;;;;4981390;28;20149;-48
2021/12/23 00:16:47;;;;;;;25.75;12.88;;;-0.10;99.90;;;;;;5004154;28;20049;-50
2021/12/23 00:24:31;;;;;;;22.33;12.35;;;-0.10;99.90;;;;;;5008373;28;20516;-48
2021/12/23 00:26:56;;;;;;;21.25;11.32;;;0.00;99.90;;;;;;4983630;28;20034;-49
2021/12/23 00:29:22;;;;;;;21.33;12.32;;;0.00;99.90;;;;;;4986072;28;20046;-54
2021/12/23 00:31:48;;;;;;;21.08;12.75;;;0.00;99.90;;;;;;4993771;28;20117;-47
2021/12/23 00:34:13;;;;;;;23.13;12.48;;;0.00;99.90;;;;;;4995087;28;20042;-47
2021/12/23 00:36:41;;;;;;;23.13;12.40;;;0.00;99.90;;;;;;4998589;28;20474;-50
2021/12/23 00:39:08;;;;;;;19.50;11.90;;;0.00;99.90;;;;;;5013310;28;20046;-51
2021/12/23 00:41:34;;;;;;;20.23;11.75;;;-0.10;99.90;;;;;;5014615;28;20103;-48
2021/12/23 00:44:00;;;;;;;23.60;12.35;;;0.00;99.90;;;;;;5014220;28;20041;-50
2021/12/23 00:46:25;;;;;;;23.33;12.80;;;0.00;99.90;;;;;;5014585;28;20117;-49
2021/12/23 00:48:51;;;;;;;22.17;12.32;;;0.00;99.90;;;;;;5014595;28;20474;-50
2021/12/23 00:51:16;;;;;;;26.15;13.07;;;0.00;99.90;;;;;;4991831;28;20097;-49
2021/12/23 00:53:42;;;;;;;24.45;12.77;;;-0.10;99.90;;;;;;5009220;28;20497;-50
2021/12/23 00:56:11;;;;;;;25.05;12.80;;;-0.10;99.90;;;;;;5014316;28;20494;-48
2021/12/23 00:58:37;;;;;;;24.40;12.88;;;-0.10;99.90;;;;;;4996487;28;20049;-49
2021/12/23 01:01:02;;;;;;;23.20;12.65;;;0.00;99.90;;;;;;5014419;28;20104;-50
2021/12/23 01:03:29;;;;;;;22.23;11.93;;;0.00;99.90;;;;;;5014085;28;20040;-48
2021/12/23 01:05:56;;;;;;;22.50;12.80;;;0.00;99.90;;;;;;5010974;28;20030;-48
2021/12/23 01:08:21;;;;;;;24.15;13.15;;;-0.10;99.90;;;;;;4976207;28;20043;-52
2021/12/23 01:10:50;;;;;;;24.33;13.05;;;0.00;99.90;;;;;;4990343;28;20039;-50
2021/12/23 01:13:18;;;;;;;24.38;13.40;;;-0.10;99.90;;;;;;4974661;28;20050;-50
2021/12/23 01:16:05;;;;;;;22.63;13.07;;;-0.10;99.90;;;;;;4992460;28;20046;-51
2021/12/23 01:18:38;;;;;;;23.80;12.90;;;0.00;99.90;;;;;;5006062;28;20410;-48
2021/12/23 01:21:16;;;;;;;23.40;13.13;;;0.00;99.90;;;;;;5013809;28;20738;-49
2021/12/23 01:23:44;;;;;;;22.23;13.20;;;0.00;99.90;;;;;;5013705;28;20041;-50
2021/12/23 01:26:10;;;;;;;21.88;12.93;;;0.00;99.90;;;;;;5013232;28;20430;-52
2021/12/23 01:28:36;;;;;;;22.52;13.00;;;0.00;99.90;;;;;;4993684;28;20049;-51
2021/12/23 01:31:02;;;;;;;22.25;13.10;;;0.00;99.90;;;;;;5000238;28;20038;-48
2021/12/23 01:33:27;;;;;;;24.38;13.18;;;0.00;99.90;;;;;;4974465;28;20089;-47
2021/12/23 01:35:53;;;;;;;25.20;12.65;;;0.00;99.90;;;;;;4986354;28;20226;-50
2021/12/23 01:38:18;;;;;;;21.83;12.48;;;0.00;99.90;;;;;;4993806;28;20043;-50
2021/12/23 01:40:46;;;;;;;27.48;13.32;;;0.10;99.90;;;;;;4993980;28;20063;-50
2021/12/23 01:43:13;;;;;;;25.83;13.27;;;0.10;99.90;;;;;;4996068;28;20069;-50
2021/12/23 01:45:44;;;;;;;24.95;13.00;;;0.00;99.90;;;;;;4994547;28;20034;-48
2021/12/23 01:48:10;;;;;;;26.40;13.55;;;0.00;99.90;;;;;;5013304;28;20118;-50
2021/12/23 01:50:37;;;;;;;26.30;14.00;;;0.00;99.90;;;;;;5013171;28;20116;-48
2021/12/23 01:53:03;;;;;;;25.67;13.50;;;0.00;99.90;;;;;;4995436;28;20827;-50
2021/12/23 01:55:29;;;;;;;24.83;13.80;;;0.10;99.90;;;;;;5013270;28;20042;-47
2021/12/23 01:57:57;;;;;;;22.92;12.98;;;0.10;99.90;;;;;;5004946;28;20513;-50
2021/12/23 02:00:26;;;;;;;23.92;13.32;;;0.10;99.90;;;;;;4993523;28;20043;-47
2021/12/23 02:02:53;;;;;;;25.75;13.20;;;0.10;99.90;;;;;;4993071;28;20133;-48
2021/12/23 02:05:19;;;;;;;23.92;13.65;;;0.10;99.90;;;;;;4998896;28;20041;-51
2021/12/23 02:07:45;;;;;;;24.63;14.40;;;0.10;99.90;;;;;;5013052;28;20037;-47
2021/12/23 02:10:11;;;;;;;23.17;13.45;;;0.10;99.90;;;;;;5011709;28;20096;-47
2021/12/23 02:12:39;;;;;;;25.40;13.80;;;0.10;99.90;;;;;;5011516;28;20038;-47
2021/12/23 02:15:05;;;;;;;25.23;13.68;;;0.10;99.90;;;;;;5002042;28;20089;-50
2021/12/23 02:17:34;;;;;;;26.10;13.43;;;0.10;99.90;;;;;;4973575;28;20047;-48
2021/12/23 02:20:00;;;;;;;23.65;12.85;;;0.10;99.90;;;;;;4996257;28;20088;-47
2021/12/23 02:22:25;;;;;;;25.48;14.40;;;0.10;99.90;;;;;;5010389;28;20042;-49
2021/12/23 02:24:51;;;;;;;24.40;13.73;;;0.10;99.90;;;;;;5012857;28;20077;-47
2021/12/23 02:27:16;;;;;;;26.02;13.65;;;0.10;99.90;;;;;;4998920;28;20038;-47
2021/12/23 02:29:42;;;;;;;24.77;13.57;;;0.10;99.90;;;;;;4979309;28;20038;-50
2021/12/23 02:32:08;;;;;;;27.63;13.88;;;0.20;99.90;;;;;;4992577;28;20045;-52
2021/12/23 02:34:33;;;;;;;25.48;13.20;;;0.10;99.90;;;;;;4977209;28;20065;-47
2021/12/23 02:37:00;;;;;;;26.40;14.60;;;0.10;99.90;;;;;;4973432;28;20533;-47
2021/12/23 02:39:28;;;;;;;25.38;14.30;;;0.10;99.90;;;;;;4982992;28;20043;-48
2021/12/23 02:41:53;;;;;;;29.50;14.85;;;0.10;99.90;;;;;;4992979;28;20086;-47
2021/12/23 02:44:20;;;;;;;27.73;14.57;;;0.10;99.90;;;;;;4975440;28;20070;-47
2021/12/23 02:46:45;;;;;;;23.55;14.23;;;0.10;99.90;;;;;;4992537;28;20038;-49
2021/12/23 02:49:12;;;;;;;26.13;14.20;;;0.10;99.90;;;;;;4992758;28;20048;-47
2021/12/23 02:51:38;;;;;;;29.25;14.88;;;0.10;99.90;;;;;;4992536;28;20446;-50
2021/12/23 02:54:04;;;;;;;27.80;15.10;;;0.10;99.90;;;;;;4986730;28;20041;-47
2021/12/23 02:56:30;;;;;;;24.35;14.82;;;0.20;99.90;;;;;;4993007;28;20132;-47
2021/12/23 02:58:56;;;;;;;28.33;15.07;;;0.20;99.90;;;;;;5000206;28;20065;-51
2021/12/23 03:01:23;;;;;;;24.55;14.18;;;0.20;99.90;;;;;;5009316;28;20065;-49
2021/12/23 03:03:49;;;;;;;24.98;14.93;;;0.20;99.90;;;;;;5011863;28;20410;-51
2021/12/23 03:06:19;;;;;;;27.65;14.95;;;0.20;99.90;;;;;;4988506;28;20038;-50
2021/12/23 03:08:47;;;;;;;25.67;14.18;;;0.20;99.90;;;;;;4992799;28;20065;-48
2021/12/23 03:11:16;;;;;;;26.17;13.82;;;0.20;99.90;;;;;;5007751;28;20418;-50
2021/12/23 03:13:42;;;;;;;29.67;14.88;;;0.20;99.90;;;;;;5011713;28;20477;-48
2021/12/23 03:16:08;;;;;;;26.95;15.32;;;0.20;99.90;;;;;;4994296;28;20045;-48
2021/12/23 03:18:34;;;;;;;27.80;15.02;;;0.10;99.90;;;;;;5011617;28;20046;-50
2021/12/23 03:21:01;;;;;;;27.00;14.77;;;0.20;99.90;;;;;;5005025;28;20078;-48
2021/12/23 03:23:26;;;;;;;27.45;14.43;;;0.20;99.90;;;;;;4992162;28;20500;-47
2021/12/23 03:25:52;;;;;;;25.05;14.30;;;0.20;99.90;;;;;;5011865;28;20116;-49
2021/12/23 03:28:18;;;;;;;32.25;15.48;;;0.20;99.90;;;;;;5011772;28;20038;-49
2021/12/23 03:30:45;;;;;;;28.42;13.60;;;0.20;99.90;;;;;;5010576;28;20045;-50
2021/12/23 03:33:10;;;;;;;28.63;14.60;;;0.20;99.90;;;;;;5010262;28;20129;-48
2021/12/23 03:35:37;;;;;;;25.35;14.27;;;0.20;99.90;;;;;;5010460;28;20124;-49
2021/12/23 03:38:04;;;;;;;27.63;14.50;;;0.10;99.90;;;;;;5011679;28;20053;-48
2021/12/23 03:40:29;;;;;;;24.80;14.52;;;0.20;99.90;;;;;;5003298;28;20043;-52
2021/12/23 03:42:55;;;;;;;30.45;15.02;;;0.10;99.90;;;;;;4992001;28;20494;-47
2021/12/23 03:45:21;;;;;;;28.23;14.15;;;0.10;99.90;;;;;;4992001;28;20034;-47
2021/12/23 03:47:48;;;;;;;26.88;14.60;;;0.20;99.90;;;;;;4992137;28;20498;-47
2021/12/23 03:50:19;;;;;;;23.38;13.68;;;0.20;99.90;;;;;;4962954;28;20055;-50
2021/12/23 03:52:46;;;;;;;26.92;14.60;;;0.20;99.90;;;;;;4976355;28;20038;-49
2021/12/23 03:55:12;;;;;;;29.52;15.45;;;0.20;99.90;;;;;;4992027;28;20030;-49
2021/12/23 03:57:38;;;;;;;26.85;14.77;;;0.20;99.90;;;;;;5015069;28;20029;-49
2021/12/23 04:00:06;;;;;;;29.95;14.57;;;0.20;99.90;;;;;;5015387;28;20048;-47
2021/12/23 04:02:32;;;;;;;27.25;14.10;;;0.20;99.90;;;;;;5015032;28;20520;-47
2021/12/23 04:04:57;;;;;;;29.95;15.52;;;0.30;99.90;;;;;;5012896;28;20042;-47
2021/12/23 04:07:23;;;;;;;30.50;15.93;;;0.20;99.90;;;;;;5015192;28;20181;-48
2021/12/23 04:09:48;;;;;;;27.63;15.13;;;0.20;99.90;;;;;;5013916;28;20498;-52
2021/12/23 04:12:14;;;;;;;28.75;15.45;;;0.20;99.90;;;;;;5014930;28;20413;-47
2021/12/23 04:14:39;;;;;;;29.27;15.13;;;0.20;99.90;;;;;;5015185;28;20065;-50
2021/12/23 04:17:05;;;;;;;28.60;14.75;;;0.20;99.90;;;;;;5014976;28;20092;-47
2021/12/23 04:19:32;;;;;;;29.13;15.60;;;0.20;99.90;;;;;;5013806;28;20056;-49
2021/12/23 04:21:58;;;;;;;29.67;15.27;;;0.20;99.90;;;;;;5014684;28;20084;-50
2021/12/23 04:24:24;;;;;;;31.42;16.40;;;0.20;99.90;;;;;;5013685;28;20097;-47
2021/12/23 04:26:50;;;;;;;29.50;16.80;;;0.20;99.90;;;;;;5014607;28;20042;-49
2021/12/23 04:29:16;;;;;;;29.65;16.35;;;0.20;99.90;;;;;;4997220;28;20474;-48
2021/12/23 04:31:42;;;;;;;29.45;15.68;;;0.20;99.90;;;;;;5014790;28;20088;-52
2021/12/23 04:34:08;;;;;;;29.42;16.02;;;0.20;99.90;;;;;;4995848;28;20537;-47
2021/12/23 04:36:33;;;;;;;29.10;16.25;;;0.20;99.90;;;;;;5014655;28;20128;-47
2021/12/23 04:39:00;;;;;;;29.70;16.60;;;0.20;99.90;;;;;;5013295;28;20046;-50
2021/12/23 04:41:27;;;;;;;31.30;16.30;;;0.30;99.90;;;;;;5013266;28;20494;-48
2021/12/23 04:43:52;;;;;;;31.58;15.93;;;0.30;99.90;;;;;;5014474;28;20449;-49
2021/12/23 04:46:18;;;;;;;33.17;17.45;;;0.30;99.90;;;;;;5014638;28;20033;-50
2021/12/23 04:48:45;;;;;;;29.80;15.98;;;0.30;99.90;;;;;;5009753;28;20053;-50
2021/12/23 04:51:12;;;;;;;30.17;15.82;;;0.30;99.90;;;;;;4975418;28;20415;-48
2021/12/23 04:53:37;;;;;;;33.05;17.00;;;0.30;99.90;;;;;;4975207;28;20438;-51
2021/12/23 04:56:05;;;;;;;30.20;16.60;;;0.30;99.90;;;;;;4990812;28;20053;-49
2021/12/23 04:58:30;;;;;;;32.28;17.23;;;0.30;99.90;;;;;;4994741;28;20050;-48
2021/12/23 05:00:56;;;;;;;31.00;16.25;;;0.30;99.90;;;;;;4994800;28;20532;-48
2021/12/23 05:03:24;;;;;;;31.27;17.20;;;0.40;99.90;;;;;;4993170;28;20383;-51
2021/12/23 05:05:50;;;;;;;31.52;16.52;;;0.40;99.90;;;;;;4994586;28;20041;-52
2021/12/23 05:08:17;;;;;;;30.83;16.80;;;0.40;99.90;;;;;;4994535;28;20053;-52
2021/12/23 05:10:43;;;;;;;30.00;16.92;;;0.40;99.90;;;;;;5007538;28;20050;-49
2021/12/23 05:13:09;;;;;;;31.88;17.15;;;0.40;99.90;;;;;;5012673;28;20056;-50
2021/12/23 05:15:35;;;;;;;30.67;16.55;;;0.50;99.90;;;;;;5012859;28;20042;-48
2021/12/23 05:18:01;;;;;;;32.05;17.25;;;0.40;99.90;;;;;;5115203;22;20129;-45
2021/12/23 05:20:27;;;;;;;31.02;16.88;;;0.40;99.90;;;;;;4993106;28;20053;-44
2021/12/23 05:22:53;;;;;;;30.63;16.63;;;0.50;99.90;;;;;;4993618;28;20498;-44
2021/12/23 05:25:20;;;;;;;29.08;16.17;;;0.50;99.90;;;;;;4993852;28;20077;-44
2021/12/23 05:27:46;;;;;;;32.35;16.40;;;0.50;99.90;;;;;;4958962;28;20038;-45
2021/12/23 05:30:15;;;;;;;32.85;17.50;;;0.40;99.90;;;;;;4990134;28;20038;-46
2021/12/23 05:32:42;;;;;;;29.65;16.25;;;0.50;99.90;;;;;;4993546;28;20046;-46
2021/12/23 05:35:09;;;;;;;32.83;16.65;;;0.50;99.90;;;;;;4976295;28;20053;-46
2021/12/23 05:37:34;;;;;;;29.60;16.27;;;0.50;99.90;;;;;;4991140;28;20053;-44
2021/12/23 05:40:00;;;;;;;31.73;17.10;;;0.50;99.90;;;;;;4993783;28;20042;-45
2021/12/23 05:42:26;;;;;;;30.98;16.80;;;0.50;99.90;;;;;;4993408;28;20053;-48
2021/12/23 05:44:51;;;;;;;35.95;17.10;;;0.50;99.90;;;;;;4992436;28;20038;-48
2021/12/23 05:47:17;;;;;;;32.78;17.30;;;0.50;99.90;;;;;;4987512;28;20390;-45
2021/12/23 05:49:42;;;;;;;28.20;16.48;;;0.50;99.90;;;;;;4993692;28;20440;-46
2021/12/23 05:52:08;;;;;;;31.10;17.00;;;0.50;99.90;;;;;;4987888;28;20556;-47
2021/12/23 05:54:33;;;;;;;31.05;16.20;;;0.50;99.90;;;;;;4985121;28;20081;-49
2021/12/23 05:57:01;;;;;;;27.95;15.52;;;0.40;99.90;;;;;;4992601;28;20054;-48
2021/12/23 05:59:32;;;;;;;28.08;16.13;;;0.40;99.90;;;;;;4993311;28;20042;-46
2021/12/23 06:01:58;;;;;;;29.80;16.23;;;0.50;99.90;;;;;;4993150;28;20061;-47
2021/12/23 06:04:24;;;;;;;29.65;16.38;;;0.50;99.90;;;;;;4976048;28;20051;-47
2021/12/23 06:06:50;;;;;;;32.22;16.55;;;0.50;99.90;;;;;;4991500;28;20053;-47
2021/12/23 06:09:15;;;;;;;31.27;17.02;;;0.60;99.90;;;;;;4983607;28;20042;-49
2021/12/23 06:11:41;;;;;;;33.33;17.35;;;0.50;99.90;;;;;;4984728;28;20038;-48
2021/12/23 06:14:07;;;;;;;32.45;18.27;;;0.50;99.90;;;;;;4992419;28;20519;-48
2021/12/23 06:16:32;;;;;;;33.42;17.42;;;0.50;99.90;;;;;;4992863;28;20494;-47
2021/12/23 06:18:58;;;;;;;30.48;16.65;;;0.50;99.90;;;;;;4972133;28;20034;-49
2021/12/23 06:21:28;;;;;;;30.33;16.60;;;0.50;99.90;;;;;;4989874;28;20026;-49
2021/12/23 06:23:53;;;;;;;31.35;17.40;;;0.60;99.90;;;;;;4982827;28;20038;-46
2021/12/23 06:26:20;;;;;;;32.85;16.65;;;0.50;99.90;;;;;;4986763;28;20129;-46
2021/12/23 06:28:45;;;;;;;31.00;16.98;;;0.50;99.90;;;;;;4988583;28;20045;-48
2021/12/23 06:31:11;;;;;;;32.17;16.83;;;0.60;99.90;;;;;;4970496;28;20043;-50
2021/12/23 06:33:37;;;;;;;31.10;16.35;;;0.60;99.90;;;;;;4973257;28;20042;-50
2021/12/23 06:36:03;;;;;;;33.65;17.38;;;0.60;99.90;;;;;;4984955;28;20038;-48
2021/12/23 06:38:28;;;;;;;31.15;16.77;;;0.60;99.90;;;;;;4982084;28;20046;-47
2021/12/23 06:40:54;;;;;;;32.30;16.48;;;0.60;99.90;;;;;;4985521;28;21775;-49
2021/12/23 06:43:19;;;;;;;32.33;16.67;;;0.60;99.90;;;;;;4978879;28;20415;-47
2021/12/23 06:45:45;;;;;;;33.17;17.10;;;0.60;99.90;;;;;;4977448;28;20045;-47
2021/12/23 06:48:11;;;;;;;36.00;18.00;;;0.60;99.90;;;;;;4960899;28;20050;-46
2021/12/23 06:50:37;;;;;;;32.95;17.98;;;0.50;99.90;;;;;;4977575;28;20482;-47
2021/12/23 06:53:03;;;;;;;32.17;17.33;;;0.50;99.90;;;;;;4960754;28;20039;-47
2021/12/23 06:55:28;;;;;;;33.33;18.30;;;0.50;99.90;;;;;;4978569;28;20130;-48
2021/12/23 06:57:56;;;;;;;36.22;18.67;;;0.50;99.90;;;;;;4970517;28;20039;-51
2021/12/23 07:00:25;;;;;;;32.55;17.80;;;0.60;99.90;;;;;;4977199;28;20038;-49
2021/12/23 07:02:52;;;;;;;36.35;19.08;;;0.50;99.90;;;;;;4970531;28;20113;-49
2021/12/23 07:05:18;;;;;;;32.05;17.63;;;0.50;99.90;;;;;;4942708;28;20042;-50
2021/12/23 07:10:16;;;;;;;34.03;18.65;;;0.60;99.90;;;;;;4984731;28;20038;-48
2021/12/23 07:12:42;;;;;;;32.22;18.38;;;0.60;99.90;;;;;;4986308;28;20037;-47
2021/12/23 07:15:08;;;;;;;32.42;18.40;;;0.60;99.90;;;;;;4985660;28;20430;-50
2021/12/23 07:17:33;;;;;;;32.05;18.13;;;0.70;99.90;;;;;;4991812;28;20050;-47
2021/12/23 07:19:59;;;;;;;40.95;19.00;;;0.60;99.90;;;;;;4992080;28;20272;-46
2021/12/23 07:22:24;;;;;;;33.05;18.33;;;0.70;99.90;;;;;;4991059;28;20049;-47
2021/12/23 07:24:50;;;;;;;35.67;18.42;;;0.70;99.90;;;;;;4987186;28;20045;-47
2021/12/23 07:27:15;;;;;;;34.33;18.67;;;0.70;99.90;;;;;;4984515;28;20113;-46
2021/12/23 07:29:41;;;;;;;38.00;18.80;;;0.70;99.90;;;;;;4996995;28;20080;-48
2021/12/23 07:32:07;;;;;;;34.40;19.10;;;0.70;99.90;;;;;;4990993;28;20478;-47
2021/12/23 07:34:33;;;;;;;35.30;18.48;;;0.70;99.90;;;;;;4990216;28;20393;-47
2021/12/23 07:36:59;;;;;;;34.65;18.80;;;0.70;99.90;;;;;;4992362;28;20038;-45
2021/12/23 07:39:24;;;;;;;35.22;18.85;;;0.70;99.90;;;;;;4995950;28;20479;-47
2021/12/23 07:41:50;;;;;;;31.80;18.02;;;0.70;99.90;;;;;;4995108;28;20031;-46
2021/12/23 07:44:20;;;;;;;34.60;18.33;;;0.80;99.90;;;;;;4997541;28;20034;-46
2021/12/23 07:46:48;;;;;;;32.83;18.65;;;0.80;99.90;;;;;;4978530;28;20053;-47
2021/12/23 07:49:13;;;;;;;37.47;19.25;;;0.70;99.90;;;;;;4977841;28;20049;-46
2021/12/23 07:51:39;;;;;;;37.88;20.52;;;0.70;99.90;;;;;;4998435;28;20042;-46
2021/12/23 07:54:05;;;;;;;37.42;19.98;;;0.70;99.90;;;;;;4997997;28;20038;-46
2021/12/23 07:56:31;;;;;;;36.58;19.83;;;0.70;99.90;;;;;;4998440;28;20434;-47
2021/12/23 07:58:57;;;;;;;37.28;20.85;;;0.60;99.90;;;;;;4998089;28;20042;-46
2021/12/23 08:01:23;;;;;;;37.38;20.15;;;0.60;99.90;;;;;;4997959;28;20034;-47
2021/12/23 08:03:48;;;;;;;39.20;21.25;;;0.60;99.90;;;;;;4997268;28;20053;-46
2021/12/23 08:06:15;;;;;;;38.80;22.00;;;0.60;99.90;;;;;;4993498;28;20522;-48
2021/12/23 08:08:40;;;;;;;40.58;21.98;;;0.60;99.90;;;;;;4997188;28;20042;-47
2021/12/23 08:11:07;;;;;;;36.72;20.73;;;0.60;99.90;;;;;;4989034;28;20042;-46
2021/12/23 08:13:34;;;;;;;38.97;21.30;;;0.60;99.90;;;;;;4997351;28;20049;-48
2021/12/23 08:16:01;;;;;;;42.22;22.83;;;0.60;99.90;;;;;;4975063;28;20042;-47
2021/12/23 08:18:28;;;;;;;43.40;23.48;;;0.60;99.90;;;;;;4991063;28;20046;-46
2021/12/23 08:20:54;;;;;;;40.22;21.75;;;0.60;99.90;;;;;;4991294;28;20038;-46
2021/12/23 08:23:19;;;;;;;44.42;22.45;;;0.60;99.90;;;;;;4992753;28;20092;-46
2021/12/23 08:25:45;;;;;;;38.88;22.30;;;0.60;99.90;;;;;;4998028;28;20037;-48
2021/12/23 08:28:11;;;;;;;43.25;22.73;;;0.50;99.90;;;;;;4997827;28;20118;-47
2021/12/23 08:30:40;;;;;;;47.78;24.23;;;0.50;99.90;;;;;;4996167;28;20049;-50
2021/12/23 08:33:06;;;;;;;43.08;23.35;;;0.50;99.90;;;;;;4997420;28;20034;-48
2021/12/23 08:35:32;;;;;;;50.00;24.63;;;0.60;99.90;;;;;;4996636;28;20038;-49
2021/12/23 08:37:57;;;;;;;45.70;22.90;;;0.60;99.90;;;;;;4994297;28;20117;-47
2021/12/23 08:40:25;;;;;;;44.92;23.05;;;0.60;99.90;;;;;;4994705;28;20034;-49
2021/12/23 08:42:51;;;;;;;47.47;23.70;;;0.60;99.90;;;;;;4960453;28;20129;-47
2021/12/23 08:45:18;;;;;;;46.72;24.10;;;0.60;99.90;;;;;;4993370;28;20027;-50
2021/12/23 08:47:45;;;;;;;47.33;24.33;;;0.60;99.90;;;;;;4994248;28;20046;-47
2021/12/23 08:50:11;;;;;;;47.65;24.23;;;0.60;99.90;;;;;;4993921;28;20042;-46
2021/12/23 08:52:37;;;;;;;47.28;24.35;;;0.60;99.90;;;;;;4994629;28;20121;-48
2021/12/23 08:55:05;;;;;;;52.17;26.27;;;0.60;99.90;;;;;;4992627;28;20121;-45
2021/12/23 08:57:31;;;;;;;51.95;25.95;;;0.60;99.90;;;;;;4991982;28;20398;-47
2021/12/23 08:59:57;;;;;;;53.00;25.58;;;0.60;99.90;;;;;;4992508;28;20034;-46
2021/12/23 09:02:22;;;;;;;51.45;25.58;;;0.60;99.90;;;;;;4993832;28;20065;-47
2021/12/23 09:04:48;;;;;;;52.33;25.80;;;0.60;99.90;;;;;;4992467;28;20092;-47
2021/12/23 09:07:13;;;;;;;47.63;25.15;;;0.60;99.90;;;;;;4993401;28;20030;-47
2021/12/23 09:09:39;;;;;;;54.45;27.27;;;0.70;99.90;;;;;;4994139;28;20064;-47
2021/12/23 09:12:07;;;;;;;52.50;26.60;;;0.70;99.90;;;;;;4993850;28;20042;-47
2021/12/23 09:14:34;;;;;;;55.63;26.85;;;0.70;99.90;;;;;;4992634;28;20054;-48
2021/12/23 09:17:02;;;;;;;56.40;27.33;;;0.70;99.90;;;;;;4993852;28;20038;-46
2021/12/23 09:19:27;;;;;;;56.70;27.15;;;0.70;99.90;;;;;;4993303;28;20046;-46
2021/12/23 09:21:53;;;;;;;56.67;25.85;;;0.70;99.90;;;;;;4993111;28;20057;-48
2021/12/23 09:24:20;;;;;;;60.72;28.40;;;0.70;99.90;;;;;;4993413;28;20219;-47
2021/12/23 09:26:53;;;;;;;55.30;27.20;;;0.70;99.90;;;;;;4993426;28;20536;-48
2021/12/23 09:32:42;;;;;;;55.75;27.13;;;0.70;99.90;;;;;;4993127;28;20049;-47
2021/12/23 09:32:52;;;;;;;54.40;26.98;;;0.70;99.90;;;;;;4992652;28;20057;-48
2021/12/23 09:35:23;;;;;;;59.40;25.63;;;0.70;99.90;;;;;;4993135;28;20049;-46
2021/12/23 09:37:50;;;;;;;58.67;27.90;;;0.80;99.90;;;;;;4993686;28;20117;-46
2021/12/23 09:40:17;;;;;;;54.00;26.70;;;0.80;99.90;;;;;;4992010;28;20379;-45
2021/12/23 09:42:44;;;;;;;59.70;27.67;;;0.70;99.90;;;;;;4993463;28;20041;-46
2021/12/23 09:45:12;;;;;;;61.97;29.23;;;0.70;99.90;;;;;;4992715;28;20034;-47
2021/12/23 09:47:41;;;;;;;57.72;28.40;;;0.80;99.90;;;;;;4992291;28;20038;-47
2021/12/23 09:50:11;;;;;;;57.60;27.15;;;0.80;99.90;;;;;;4991494;28;20065;-49
2021/12/23 09:52:42;;;;;;;61.47;27.77;;;0.90;99.90;;;;;;4992076;28;20038;-49
2021/12/23 09:55:09;;;;;;;58.38;27.25;;;0.80;99.90;;;;;;4991170;28;20091;-48
2021/12/23 09:57:35;;;;;;;62.95;27.30;;;0.80;99.90;;;;;;4992555;28;20498;-45
2021/12/23 10:00:03;;;;;;;59.42;28.90;;;0.80;99.90;;;;;;4992967;28;20048;-46
2021/12/23 10:02:28;;;;;;;58.97;28.13;;;0.80;99.90;;;;;;4974447;28;20050;-50
2021/12/23 10:04:54;;;;;;;63.78;28.40;;;0.90;99.90;;;;;;4993192;28;20053;-49
2021/12/23 10:07:20;;;;;;;59.10;27.50;;;0.90;99.90;;;;;;4984136;28;20046;-47
2021/12/23 10:10:01;;;;;;;56.47;26.67;;;0.90;99.90;;;;;;4992498;28;20045;-45
2021/12/23 10:32:01;;;;;;;65.38;29.10;;;1.10;99.90;;;;;;4991613;28;20148;-46
2021/12/23 10:37:19;;;;;;;59.80;27.90;;;1.00;99.90;;;;;;4991376;28;20049;-48
2021/12/23 10:39:48;;;;;;;58.00;27.35;;;1.00;99.90;;;;;;4991379;28;20297;-47
2021/12/23 10:42:21;;;;;;;57.45;26.55;;;1.00;99.90;;;;;;4992238;28;20122;-47
2021/12/23 10:44:57;;;;;;;58.80;27.77;;;1.00;99.90;;;;;;4992727;28;20084;-47
2021/12/23 10:47:30;;;;;;;63.67;28.77;;;1.00;99.90;;;;;;4991896;28;20092;-46
2021/12/23 10:50:37;;;;;;;68.50;28.92;;;1.00;99.90;;;;;;4992037;28;20046;-47
2021/12/23 10:53:09;;;;;;;60.20;28.55;;;1.00;99.90;;;;;;4981152;28;20080;-46
2021/12/23 10:58:20;;;;;;;66.55;28.77;;;1.10;99.90;;;;;;4990993;28;20101;-47
2021/12/23 11:00:58;;;;;;;66.32;28.77;;;1.10;99.90;;;;;;4990970;28;20038;-47
2021/12/23 11:03:40;;;;;;;66.38;29.00;;;1.10;99.90;;;;;;4991803;28;20049;-46
2021/12/23 11:06:23;;;;;;;60.50;29.10;;;1.20;99.90;;;;;;4990165;28;20053;-49
2021/12/23 11:28:43;;;;;;;63.85;28.15;;;1.30;99.90;;;;;;5007667;28;20053;-50
2021/12/23 11:44:45;;;;;;;63.08;28.38;;;1.30;99.90;;;;;;4950492;28;20043;-48
2021/12/23 11:47:14;;;;;;;65.30;30.05;;;1.30;99.90;;;;;;4991552;28;20475;-51
2021/12/23 11:49:43;;;;;;;61.63;27.63;;;1.30;99.90;;;;;;4989410;28;20043;-50
2021/12/23 11:52:09;;;;;;;62.25;28.98;;;1.30;99.90;;;;;;4982943;28;20035;-52
2021/12/23 11:54:42;;;;;;;61.15;27.15;;;1.20;99.90;;;;;;4991827;28;20044;-51
2021/12/23 11:57:10;;;;;;;68.65;28.73;;;1.20;99.90;;;;;;4991440;28;20090;-51
2021/12/23 11:59:40;;;;;;;61.75;27.88;;;1.20;99.90;;;;;;4991612;28;20046;-52
2021/12/23 12:02:22;;;;;;;58.47;27.48;;;1.20;99.90;;;;;;4990843;28;20506;-53
2021/12/23 12:04:49;;;;;;;60.50;28.23;;;1.20;99.90;;;;;;4989865;28;20560;-51
2021/12/23 12:07:20;;;;;;;59.20;27.60;;;1.20;99.90;;;;;;4990640;28;20031;-49
2021/12/23 12:09:59;;;;;;;62.60;28.55;;;1.20;99.90;;;;;;4991218;28;20130;-52
2021/12/23 12:12:27;;;;;;;65.03;28.52;;;1.20;99.90;;;;;;4994135;28;20042;-51
2021/12/23 12:14:55;;;;;;;64.22;28.38;;;1.20;99.90;;;;;;4995154;28;20038;-51
2021/12/23 12:17:24;;;;;;;58.83;27.95;;;1.30;99.90;;;;;;4994302;28;20064;-50
2021/12/23 12:20:09;;;;;;;55.83;26.48;;;1.30;99.90;;;;;;4994061;28;20081;-48
2021/12/23 12:22:49;;;;;;;60.38;28.02;;;1.30;99.90;;;;;;4979212;28;20042;-48
2021/12/23 12:25:23;;;;;;;60.20;28.38;;;1.30;99.90;;;;;;4994971;28;20442;-48
2021/12/23 12:28:09;;;;;;;65.30;29.88;;;1.20;99.90;;;;;;4993890;28;20038;-48
2021/12/23 12:30:42;;;;;;;67.35;28.83;;;1.20;99.90;;;;;;4983018;28;20042;-48
2021/12/23 12:33:12;;;;;;;60.90;27.05;;;1.30;99.90;;;;;;4993820;28;20112;-48
2021/12/23 12:35:39;;;;;;;59.20;27.48;;;1.30;99.90;;;;;;4984093;28;20050;-48
2021/12/23 12:38:23;;;;;;;63.08;28.75;;;1.40;99.90;;;;;;4996819;28;20038;-50
2021/12/23 12:41:17;;;;;;;60.20;27.73;;;1.40;99.90;;;;;;4990303;28;20648;-48
2021/12/23 12:46:09;;;;;;;66.00;28.13;;;1.40;99.90;;;;;;4994403;28;20118;-48
2021/12/23 12:49:01;;;;;;;59.03;26.85;;;1.40;99.90;;;;;;5005747;28;20042;-50
2021/12/23 12:51:36;;;;;;;61.67;28.00;;;1.40;99.90;;;;;;4992309;28;20498;-50
2021/12/23 12:54:06;;;;;;;55.90;27.92;;;1.40;99.90;;;;;;4994337;28;20053;-48
2021/12/23 12:56:44;;;;;;;58.20;28.15;;;1.40;99.90;;;;;;4994463;28;20043;-48
2021/12/23 12:59:11;;;;;;;62.63;28.38;;;1.40;99.90;;;;;;4993718;28;20042;-48
2021/12/23 13:01:43;;;;;;;56.30;28.20;;;1.30;99.90;;;;;;4999695;28;20464;-48
2021/12/23 13:04:25;;;;;;;58.80;28.20;;;1.30;99.90;;;;;;4992925;28;20293;-47
2021/12/23 13:06:56;;;;;;;59.42;28.23;;;1.30;99.90;;;;;;4976767;28;20065;-48
2021/12/23 13:09:36;;;;;;;60.85;27.58;;;1.40;99.90;;;;;;4994539;28;20047;-48
2021/12/23 13:12:03;;;;;;;60.28;28.27;;;1.40;99.90;;;;;;4992645;28;20453;-52
2021/12/23 13:14:55;;;;;;;62.90;29.05;;;1.40;99.90;;;;;;4999428;28;20038;-47
2021/12/23 13:17:44;;;;;;;65.13;29.60;;;1.40;99.90;;;;;;4991985;28;20046;-48
2021/12/23 13:20:10;;;;;;;59.50;28.23;;;1.40;99.90;;;;;;4990618;28;20030;-50
2021/12/23 13:22:37;;;;;;;65.32;28.95;;;1.40;99.90;;;;;;4992756;28;20553;-48
2021/12/23 13:25:05;;;;;;;62.80;29.10;;;1.40;99.90;;;;;;4994076;28;20505;-48
2021/12/23 13:27:30;;;;;;;60.60;27.05;;;1.40;99.90;;;;;;4993863;28;20048;-48
2021/12/23 13:30:09;;;;;;;59.17;27.95;;;1.40;99.90;;;;;;4993410;28;20151;-51
2021/12/23 13:32:36;;;;;;;61.38;29.05;;;1.50;99.90;;;;;;4992742;28;20042;-51
2021/12/23 13:35:13;;;;;;;62.67;27.83;;;1.40;99.90;;;;;;4993652;28;20038;-50
2021/12/23 13:37:44;;;;;;;62.60;27.90;;;1.40;99.90;;;;;;4993404;28;20042;-51
2021/12/23 13:40:11;;;;;;;60.85;29.98;;;1.50;99.90;;;;;;4993391;28;20042;-51
2021/12/23 13:42:41;;;;;;;58.90;27.65;;;1.50;99.90;;;;;;4993182;28;20034;-51
2021/12/23 13:45:08;;;;;;;60.13;27.55;;;1.50;99.90;;;;;;4993264;28;20088;-51
2021/12/23 13:47:34;;;;;;;55.90;28.27;;;1.50;99.90;;;;;;4993691;28;20061;-48
2021/12/23 13:50:00;;;;;;;55.92;27.98;;;1.50;99.90;;;;;;4992674;28;20042;-50